sensor_id;sensor_type;location;lat;lon;timestamp;P1;durP1;ratioP1;P2;durP2;ratioP2
6109;SDS011;3085;49.444;11.054;2022-10-22T00:00:42;7.40;;;3.00;;
6109;SDS011;3085;49.444;11.054;2022-10-22T00:03:08;5.10;;;2.70;;
6109;SDS011;3085;49.444;11.054;2022-10-22T00:05:36;4.87;;;2.57;;
6109;SDS011;3085;49.444;11.054;2022-10-22T00:08:03;6.30;;;3.20;;
6109;SDS011;3085;49.444;11.054;2022-10-22T00:10:30;9.60;;;3.20;;
6109;SDS011;3085;49.444;11.054;2022-10-22T00:12:57;3.47;;;2.10;;
6109;SDS011;3085;49.444;11.054;2022-10-22T00:15:24;4.80;;;2.50;;
6109;SDS011;3085;49.444;11.054;2022-10-22T00:17:51;9.23;;;2.70;;
6109;SDS011;3085;49.444;11.054;2022-10-22T00:20:18;5.50;;;2.30;;
6109;SDS011;3085;49.444;11.054;2022-10-22T00:22:46;8.80;;;2.83;;
6109;SDS011;3085;49.444;11.054;2022-10-22T00:25:13;11.40;;;2.60;;
6109;SDS011;3085;49.444;11.054;2022-10-22T00:27:40;4.63;;;2.70;;
6109;SDS011;3085;49.444;11.054;2022-10-22T00:30:07;8.30;;;3.30;;
6109;SDS011;3085;49.444;11.054;2022-10-22T00:32:35;4.27;;;2.33;;
6109;SDS011;3085;49.444;11.054;2022-10-22T00:35:02;6.80;;;2.77;;
6109;SDS011;3085;49.444;11.054;2022-10-22T00:37:30;12.70;;;2.73;;
6109;SDS011;3085;49.444;11.054;2022-10-22T00:39:58;7.40;;;2.80;;
6109;SDS011;3085;49.444;11.054;2022-10-22T00:42:26;9.17;;;2.63;;
6109;SDS011;3085;49.444;11.054;2022-10-22T00:45:04;4.83;;;2.97;;
6109;SDS011;3085;49.444;11.054;2022-10-22T00:47:43;5.50;;;2.83;;
6109;SDS011;3085;49.444;11.054;2022-10-22T00:50:14;5.47;;;2.97;;
6109;SDS011;3085;49.444;11.054;2022-10-22T00:52:44;3.80;;;2.33;;
6109;SDS011;3085;49.444;11.054;2022-10-22T00:55:13;5.10;;;3.00;;
6109;SDS011;3085;49.444;11.054;2022-10-22T00:57:41;4.30;;;2.60;;
6109;SDS011;3085;49.444;11.054;2022-10-22T01:00:09;5.17;;;2.87;;
6109;SDS011;3085;49.444;11.054;2022-10-22T01:02:36;6.20;;;2.80;;
6109;SDS011;3085;49.444;11.054;2022-10-22T01:05:03;3.70;;;2.50;;
6109;SDS011;3085;49.444;11.054;2022-10-22T01:07:31;6.40;;;2.43;;
6109;SDS011;3085;49.444;11.054;2022-10-22T01:10:04;4.00;;;2.73;;
6109;SDS011;3085;49.444;11.054;2022-10-22T01:12:41;5.17;;;2.73;;
6109;SDS011;3085;49.444;11.054;2022-10-22T01:15:15;3.90;;;2.60;;
6109;SDS011;3085;49.444;11.054;2022-10-22T01:17:50;6.53;;;3.07;;
6109;SDS011;3085;49.444;11.054;2022-10-22T01:20:29;4.83;;;2.50;;
6109;SDS011;3085;49.444;11.054;2022-10-22T01:23:41;23.47;;;2.70;;
6109;SDS011;3085;49.444;11.054;2022-10-22T01:26:41;2.70;;;1.80;;
6109;SDS011;3085;49.444;11.054;2022-10-22T01:29:24;4.37;;;2.20;;
6109;SDS011;3085;49.444;11.054;2022-10-22T01:31:55;2.93;;;1.80;;
6109;SDS011;3085;49.444;11.054;2022-10-22T01:34:25;5.87;;;2.10;;
6109;SDS011;3085;49.444;11.054;2022-10-22T01:36:55;5.97;;;2.27;;
6109;SDS011;3085;49.444;11.054;2022-10-22T01:39:23;5.23;;;2.27;;
6109;SDS011;3085;49.444;11.054;2022-10-22T01:41:53;3.40;;;1.80;;
6109;SDS011;3085;49.444;11.054;2022-10-22T01:44:23;4.33;;;1.37;;
6109;SDS011;3085;49.444;11.054;2022-10-22T01:46:52;2.57;;;1.60;;
6109;SDS011;3085;49.444;11.054;2022-10-22T01:49:30;2.77;;;1.77;;
6109;SDS011;3085;49.444;11.054;2022-10-22T01:52:06;3.50;;;1.93;;
6109;SDS011;3085;49.444;11.054;2022-10-22T01:54:42;4.70;;;1.60;;
6109;SDS011;3085;49.444;11.054;2022-10-22T01:57:14;2.20;;;1.10;;
6109;SDS011;3085;49.444;11.054;2022-10-22T01:59:57;2.50;;;1.33;;
6109;SDS011;3085;49.444;11.054;2022-10-22T02:02:37;2.57;;;1.30;;
6109;SDS011;3085;49.444;11.054;2022-10-22T02:05:08;7.33;;;0.90;;
6109;SDS011;3085;49.444;11.054;2022-10-22T02:07:42;3.87;;;1.03;;
6109;SDS011;3085;49.444;11.054;2022-10-22T02:10:12;2.07;;;1.07;;
6109;SDS011;3085;49.444;11.054;2022-10-22T02:12:40;5.57;;;1.10;;
6109;SDS011;3085;49.444;11.054;2022-10-22T02:15:10;2.03;;;1.23;;
6109;SDS011;3085;49.444;11.054;2022-10-22T02:17:39;1.93;;;1.10;;
6109;SDS011;3085;49.444;11.054;2022-10-22T02:20:10;1.23;;;0.80;;
6109;SDS011;3085;49.444;11.054;2022-10-22T02:22:41;2.97;;;1.10;;
6109;SDS011;3085;49.444;11.054;2022-10-22T02:25:08;1.30;;;0.80;;
6109;SDS011;3085;49.444;11.054;2022-10-22T02:27:37;2.40;;;1.53;;
6109;SDS011;3085;49.444;11.054;2022-10-22T02:30:10;1.50;;;1.00;;
6109;SDS011;3085;49.444;11.054;2022-10-22T02:32:40;1.53;;;0.93;;
6109;SDS011;3085;49.444;11.054;2022-10-22T02:35:10;2.93;;;1.17;;
6109;SDS011;3085;49.444;11.054;2022-10-22T02:37:40;1.77;;;1.10;;
6109;SDS011;3085;49.444;11.054;2022-10-22T02:40:08;2.10;;;1.40;;
6109;SDS011;3085;49.444;11.054;2022-10-22T02:42:36;3.10;;;1.10;;
6109;SDS011;3085;49.444;11.054;2022-10-22T02:45:05;5.20;;;1.50;;
6109;SDS011;3085;49.444;11.054;2022-10-22T02:47:34;4.80;;;1.30;;
6109;SDS011;3085;49.444;11.054;2022-10-22T02:50:01;2.30;;;1.50;;
6109;SDS011;3085;49.444;11.054;2022-10-22T02:52:28;2.87;;;1.40;;
6109;SDS011;3085;49.444;11.054;2022-10-22T02:54:55;2.47;;;1.50;;
6109;SDS011;3085;49.444;11.054;2022-10-22T02:57:22;3.33;;;1.27;;
6109;SDS011;3085;49.444;11.054;2022-10-22T02:59:49;1.73;;;1.10;;
6109;SDS011;3085;49.444;11.054;2022-10-22T03:02:15;2.83;;;1.30;;
6109;SDS011;3085;49.444;11.054;2022-10-22T03:04:44;2.47;;;1.40;;
6109;SDS011;3085;49.444;11.054;2022-10-22T03:07:10;1.90;;;1.33;;
6109;SDS011;3085;49.444;11.054;2022-10-22T03:09:37;3.37;;;1.60;;
6109;SDS011;3085;49.444;11.054;2022-10-22T03:12:05;2.50;;;1.47;;
6109;SDS011;3085;49.444;11.054;2022-10-22T03:14:32;2.80;;;1.43;;
6109;SDS011;3085;49.444;11.054;2022-10-22T03:16:59;2.47;;;1.53;;
6109;SDS011;3085;49.444;11.054;2022-10-22T03:19:26;4.03;;;1.40;;
6109;SDS011;3085;49.444;11.054;2022-10-22T03:21:55;2.73;;;1.50;;
6109;SDS011;3085;49.444;11.054;2022-10-22T03:24:26;3.70;;;1.77;;
6109;SDS011;3085;49.444;11.054;2022-10-22T03:26:56;3.37;;;1.43;;
6109;SDS011;3085;49.444;11.054;2022-10-22T03:29:24;2.57;;;1.30;;
6109;SDS011;3085;49.444;11.054;2022-10-22T03:31:52;3.00;;;1.70;;
6109;SDS011;3085;49.444;11.054;2022-10-22T03:34:19;2.47;;;1.40;;
6109;SDS011;3085;49.444;11.054;2022-10-22T03:36:46;2.97;;;1.40;;
6109;SDS011;3085;49.444;11.054;2022-10-22T03:39:15;1.90;;;1.40;;
6109;SDS011;3085;49.444;11.054;2022-10-22T03:41:44;2.43;;;1.60;;
6109;SDS011;3085;49.444;11.054;2022-10-22T03:44:11;3.13;;;1.90;;
6109;SDS011;3085;49.444;11.054;2022-10-22T03:46:38;3.93;;;1.60;;
6109;SDS011;3085;49.444;11.054;2022-10-22T03:49:05;2.97;;;1.40;;
6109;SDS011;3085;49.444;11.054;2022-10-22T03:51:32;6.13;;;1.80;;
6109;SDS011;3085;49.444;11.054;2022-10-22T03:54:00;2.13;;;1.30;;
6109;SDS011;3085;49.444;11.054;2022-10-22T03:56:28;1.97;;;1.27;;
6109;SDS011;3085;49.444;11.054;2022-10-22T03:58:56;4.97;;;1.70;;
6109;SDS011;3085;49.444;11.054;2022-10-22T04:01:24;2.20;;;1.40;;
6109;SDS011;3085;49.444;11.054;2022-10-22T04:03:51;2.50;;;1.33;;
6109;SDS011;3085;49.444;11.054;2022-10-22T04:06:18;5.30;;;1.97;;
6109;SDS011;3085;49.444;11.054;2022-10-22T04:08:45;2.67;;;1.60;;
6109;SDS011;3085;49.444;11.054;2022-10-22T04:11:13;4.67;;;1.67;;
6109;SDS011;3085;49.444;11.054;2022-10-22T04:13:42;3.90;;;1.40;;
6109;SDS011;3085;49.444;11.054;2022-10-22T04:16:10;3.73;;;1.77;;
6109;SDS011;3085;49.444;11.054;2022-10-22T04:18:39;4.77;;;1.70;;
6109;SDS011;3085;49.444;11.054;2022-10-22T04:21:07;4.63;;;1.77;;
6109;SDS011;3085;49.444;11.054;2022-10-22T04:23:35;2.87;;;1.23;;
6109;SDS011;3085;49.444;11.054;2022-10-22T04:26:03;2.43;;;1.60;;
6109;SDS011;3085;49.444;11.054;2022-10-22T04:28:31;11.53;;;1.57;;
6109;SDS011;3085;49.444;11.054;2022-10-22T04:31:00;3.93;;;1.60;;
6109;SDS011;3085;49.444;11.054;2022-10-22T04:33:32;5.23;;;2.00;;
6109;SDS011;3085;49.444;11.054;2022-10-22T04:35:59;2.70;;;1.83;;
6109;SDS011;3085;49.444;11.054;2022-10-22T04:38:27;3.50;;;1.70;;
6109;SDS011;3085;49.444;11.054;2022-10-22T04:40:54;5.33;;;1.63;;
6109;SDS011;3085;49.444;11.054;2022-10-22T04:43:20;2.70;;;1.70;;
6109;SDS011;3085;49.444;11.054;2022-10-22T04:45:47;3.70;;;1.90;;
6109;SDS011;3085;49.444;11.054;2022-10-22T04:48:15;3.27;;;1.57;;
6109;SDS011;3085;49.444;11.054;2022-10-22T04:50:42;2.70;;;1.83;;
6109;SDS011;3085;49.444;11.054;2022-10-22T04:53:10;3.37;;;1.80;;
6109;SDS011;3085;49.444;11.054;2022-10-22T04:55:37;4.30;;;1.80;;
6109;SDS011;3085;49.444;11.054;2022-10-22T04:58:03;3.33;;;1.70;;
6109;SDS011;3085;49.444;11.054;2022-10-22T05:00:30;2.63;;;1.60;;
6109;SDS011;3085;49.444;11.054;2022-10-22T05:02:57;2.63;;;1.67;;
6109;SDS011;3085;49.444;11.054;2022-10-22T05:05:25;1.73;;;1.13;;
6109;SDS011;3085;49.444;11.054;2022-10-22T05:07:52;5.07;;;1.67;;
6109;SDS011;3085;49.444;11.054;2022-10-22T05:10:19;2.50;;;1.43;;
6109;SDS011;3085;49.444;11.054;2022-10-22T05:12:46;9.13;;;1.33;;
6109;SDS011;3085;49.444;11.054;2022-10-22T05:15:13;2.20;;;1.50;;
6109;SDS011;3085;49.444;11.054;2022-10-22T05:17:40;6.20;;;1.70;;
6109;SDS011;3085;49.444;11.054;2022-10-22T05:20:07;1.90;;;1.27;;
6109;SDS011;3085;49.444;11.054;2022-10-22T05:22:36;1.87;;;1.30;;
6109;SDS011;3085;49.444;11.054;2022-10-22T05:25:05;2.00;;;1.30;;
6109;SDS011;3085;49.444;11.054;2022-10-22T05:27:33;2.57;;;1.57;;
6109;SDS011;3085;49.444;11.054;2022-10-22T05:30:00;5.30;;;1.63;;
6109;SDS011;3085;49.444;11.054;2022-10-22T05:32:26;3.00;;;1.80;;
6109;SDS011;3085;49.444;11.054;2022-10-22T05:34:53;4.73;;;2.40;;
6109;SDS011;3085;49.444;11.054;2022-10-22T05:37:20;3.10;;;1.60;;
6109;SDS011;3085;49.444;11.054;2022-10-22T05:39:48;8.53;;;2.60;;
6109;SDS011;3085;49.444;11.054;2022-10-22T05:42:15;4.10;;;1.80;;
6109;SDS011;3085;49.444;11.054;2022-10-22T05:44:42;2.40;;;1.57;;
6109;SDS011;3085;49.444;11.054;2022-10-22T05:47:09;3.57;;;1.83;;
6109;SDS011;3085;49.444;11.054;2022-10-22T05:49:36;2.73;;;1.70;;
6109;SDS011;3085;49.444;11.054;2022-10-22T05:52:03;4.07;;;1.83;;
6109;SDS011;3085;49.444;11.054;2022-10-22T05:54:30;3.33;;;1.63;;
6109;SDS011;3085;49.444;11.054;2022-10-22T05:56:58;4.10;;;2.57;;
6109;SDS011;3085;49.444;11.054;2022-10-22T05:59:25;2.30;;;1.40;;
6109;SDS011;3085;49.444;11.054;2022-10-22T06:01:52;2.90;;;1.50;;
6109;SDS011;3085;49.444;11.054;2022-10-22T06:04:19;5.50;;;1.70;;
6109;SDS011;3085;49.444;11.054;2022-10-22T06:06:46;7.03;;;1.63;;
6109;SDS011;3085;49.444;11.054;2022-10-22T06:09:15;3.67;;;1.90;;
6109;SDS011;3085;49.444;11.054;2022-10-22T06:11:45;7.60;;;1.63;;
6109;SDS011;3085;49.444;11.054;2022-10-22T06:14:14;3.93;;;2.07;;
6109;SDS011;3085;49.444;11.054;2022-10-22T06:16:41;3.13;;;1.47;;
6109;SDS011;3085;49.444;11.054;2022-10-22T06:19:09;8.13;;;2.43;;
6109;SDS011;3085;49.444;11.054;2022-10-22T06:21:37;2.87;;;1.70;;
6109;SDS011;3085;49.444;11.054;2022-10-22T06:24:04;4.30;;;2.00;;
6109;SDS011;3085;49.444;11.054;2022-10-22T06:26:32;2.67;;;1.70;;
6109;SDS011;3085;49.444;11.054;2022-10-22T06:28:59;5.13;;;1.90;;
6109;SDS011;3085;49.444;11.054;2022-10-22T06:31:28;8.93;;;2.20;;
6109;SDS011;3085;49.444;11.054;2022-10-22T06:34:00;3.93;;;2.00;;
6109;SDS011;3085;49.444;11.054;2022-10-22T06:36:27;5.57;;;2.23;;
6109;SDS011;3085;49.444;11.054;2022-10-22T06:38:54;3.67;;;2.40;;
6109;SDS011;3085;49.444;11.054;2022-10-22T06:41:22;2.13;;;1.33;;
6109;SDS011;3085;49.444;11.054;2022-10-22T06:43:50;4.93;;;2.13;;
6109;SDS011;3085;49.444;11.054;2022-10-22T06:46:18;2.20;;;1.70;;
6109;SDS011;3085;49.444;11.054;2022-10-22T06:48:48;2.43;;;1.50;;
6109;SDS011;3085;49.444;11.054;2022-10-22T06:51:16;4.63;;;2.67;;
6109;SDS011;3085;49.444;11.054;2022-10-22T06:53:45;7.63;;;2.00;;
6109;SDS011;3085;49.444;11.054;2022-10-22T06:56:13;3.50;;;2.00;;
6109;SDS011;3085;49.444;11.054;2022-10-22T06:58:42;3.07;;;1.90;;
6109;SDS011;3085;49.444;11.054;2022-10-22T07:01:09;3.70;;;2.27;;
6109;SDS011;3085;49.444;11.054;2022-10-22T07:03:38;3.30;;;2.10;;
6109;SDS011;3085;49.444;11.054;2022-10-22T07:06:08;3.50;;;1.80;;
6109;SDS011;3085;49.444;11.054;2022-10-22T07:08:37;3.70;;;1.80;;
6109;SDS011;3085;49.444;11.054;2022-10-22T07:11:06;4.93;;;2.43;;
6109;SDS011;3085;49.444;11.054;2022-10-22T07:13:34;4.00;;;2.47;;
6109;SDS011;3085;49.444;11.054;2022-10-22T07:16:02;3.30;;;2.10;;
6109;SDS011;3085;49.444;11.054;2022-10-22T07:18:30;3.67;;;1.97;;
6109;SDS011;3085;49.444;11.054;2022-10-22T07:20:57;4.07;;;1.60;;
6109;SDS011;3085;49.444;11.054;2022-10-22T07:23:25;3.43;;;1.87;;
6109;SDS011;3085;49.444;11.054;2022-10-22T07:25:53;4.10;;;1.90;;
6109;SDS011;3085;49.444;11.054;2022-10-22T07:28:20;2.90;;;1.57;;
6109;SDS011;3085;49.444;11.054;2022-10-22T07:30:46;4.03;;;1.80;;
6109;SDS011;3085;49.444;11.054;2022-10-22T07:33:13;3.33;;;2.00;;
6109;SDS011;3085;49.444;11.054;2022-10-22T07:35:41;6.73;;;2.50;;
6109;SDS011;3085;49.444;11.054;2022-10-22T07:38:08;2.30;;;1.73;;
6109;SDS011;3085;49.444;11.054;2022-10-22T07:40:36;2.70;;;1.60;;
6109;SDS011;3085;49.444;11.054;2022-10-22T07:43:03;3.47;;;2.07;;
6109;SDS011;3085;49.444;11.054;2022-10-22T07:45:30;5.80;;;2.20;;
6109;SDS011;3085;49.444;11.054;2022-10-22T07:47:58;2.93;;;1.57;;
6109;SDS011;3085;49.444;11.054;2022-10-22T07:50:26;3.13;;;1.93;;
6109;SDS011;3085;49.444;11.054;2022-10-22T07:52:53;3.20;;;2.10;;
6109;SDS011;3085;49.444;11.054;2022-10-22T07:55:20;2.77;;;1.80;;
6109;SDS011;3085;49.444;11.054;2022-10-22T07:57:48;4.20;;;1.87;;
6109;SDS011;3085;49.444;11.054;2022-10-22T08:00:15;4.13;;;1.70;;
6109;SDS011;3085;49.444;11.054;2022-10-22T08:02:42;3.17;;;1.40;;
6109;SDS011;3085;49.444;11.054;2022-10-22T08:05:09;3.03;;;1.53;;
6109;SDS011;3085;49.444;11.054;2022-10-22T08:07:37;3.13;;;1.87;;
6109;SDS011;3085;49.444;11.054;2022-10-22T08:10:05;2.53;;;1.37;;
6109;SDS011;3085;49.444;11.054;2022-10-22T08:12:32;2.10;;;1.40;;
6109;SDS011;3085;49.444;11.054;2022-10-22T08:15:00;1.77;;;1.10;;
6109;SDS011;3085;49.444;11.054;2022-10-22T08:17:27;3.37;;;1.47;;
6109;SDS011;3085;49.444;11.054;2022-10-22T08:19:54;3.50;;;1.50;;
6109;SDS011;3085;49.444;11.054;2022-10-22T08:22:21;2.20;;;1.47;;
6109;SDS011;3085;49.444;11.054;2022-10-22T08:24:48;2.93;;;1.70;;
6109;SDS011;3085;49.444;11.054;2022-10-22T08:27:14;5.93;;;1.80;;
6109;SDS011;3085;49.444;11.054;2022-10-22T08:29:41;3.77;;;1.40;;
6109;SDS011;3085;49.444;11.054;2022-10-22T08:32:10;4.30;;;1.67;;
6109;SDS011;3085;49.444;11.054;2022-10-22T08:34:37;3.43;;;1.67;;
6109;SDS011;3085;49.444;11.054;2022-10-22T08:37:04;3.80;;;1.77;;
6109;SDS011;3085;49.444;11.054;2022-10-22T08:39:32;3.00;;;1.90;;
6109;SDS011;3085;49.444;11.054;2022-10-22T08:42:02;3.73;;;1.20;;
6109;SDS011;3085;49.444;11.054;2022-10-22T08:44:48;3.03;;;1.23;;
6109;SDS011;3085;49.444;11.054;2022-10-22T08:47:34;2.40;;;1.67;;
6109;SDS011;3085;49.444;11.054;2022-10-22T08:50:22;2.80;;;1.13;;
6109;SDS011;3085;49.444;11.054;2022-10-22T08:52:56;3.27;;;1.43;;
6109;SDS011;3085;49.444;11.054;2022-10-22T08:55:28;4.27;;;1.07;;
6109;SDS011;3085;49.444;11.054;2022-10-22T08:57:58;2.80;;;1.50;;
6109;SDS011;3085;49.444;11.054;2022-10-22T09:00:32;1.70;;;1.00;;
6109;SDS011;3085;49.444;11.054;2022-10-22T09:03:09;1.70;;;1.10;;
6109;SDS011;3085;49.444;11.054;2022-10-22T09:05:59;1.53;;;1.00;;
6109;SDS011;3085;49.444;11.054;2022-10-22T09:08:30;5.43;;;1.57;;
6109;SDS011;3085;49.444;11.054;2022-10-22T09:10:57;1.40;;;0.93;;
6109;SDS011;3085;49.444;11.054;2022-10-22T09:13:28;2.27;;;1.10;;
6109;SDS011;3085;49.444;11.054;2022-10-22T09:15:56;2.37;;;1.10;;
6109;SDS011;3085;49.444;11.054;2022-10-22T09:18:34;2.03;;;1.17;;
6109;SDS011;3085;49.444;11.054;2022-10-22T09:21:11;2.33;;;1.30;;
6109;SDS011;3085;49.444;11.054;2022-10-22T09:23:49;4.80;;;2.00;;
6109;SDS011;3085;49.444;11.054;2022-10-22T09:26:24;3.40;;;1.00;;
6109;SDS011;3085;49.444;11.054;2022-10-22T09:28:52;4.00;;;1.30;;
6109;SDS011;3085;49.444;11.054;2022-10-22T09:31:19;4.37;;;1.70;;
6109;SDS011;3085;49.444;11.054;2022-10-22T09:33:49;8.33;;;1.50;;
6109;SDS011;3085;49.444;11.054;2022-10-22T09:36:17;1.70;;;1.17;;
6109;SDS011;3085;49.444;11.054;2022-10-22T09:38:46;4.63;;;1.00;;
6109;SDS011;3085;49.444;11.054;2022-10-22T09:41:15;1.80;;;0.90;;
6109;SDS011;3085;49.444;11.054;2022-10-22T09:43:45;1.50;;;0.97;;
6109;SDS011;3085;49.444;11.054;2022-10-22T09:46:14;1.90;;;1.00;;
6109;SDS011;3085;49.444;11.054;2022-10-22T09:48:43;1.67;;;0.83;;
6109;SDS011;3085;49.444;11.054;2022-10-22T09:51:17;2.33;;;1.20;;
6109;SDS011;3085;49.444;11.054;2022-10-22T09:53:46;1.47;;;0.90;;
6109;SDS011;3085;49.444;11.054;2022-10-22T09:56:23;1.57;;;0.77;;
6109;SDS011;3085;49.444;11.054;2022-10-22T09:58:52;1.47;;;0.80;;
6109;SDS011;3085;49.444;11.054;2022-10-22T10:01:22;1.30;;;0.87;;
6109;SDS011;3085;49.444;11.054;2022-10-22T10:03:53;2.00;;;0.80;;
6109;SDS011;3085;49.444;11.054;2022-10-22T10:06:29;3.93;;;0.93;;
6109;SDS011;3085;49.444;11.054;2022-10-22T10:08:58;3.00;;;1.20;;
6109;SDS011;3085;49.444;11.054;2022-10-22T10:11:27;1.40;;;0.80;;
6109;SDS011;3085;49.444;11.054;2022-10-22T10:14:02;1.47;;;0.83;;
6109;SDS011;3085;49.444;11.054;2022-10-22T10:16:40;1.80;;;0.90;;
6109;SDS011;3085;49.444;11.054;2022-10-22T10:19:25;2.13;;;1.40;;
6109;SDS011;3085;49.444;11.054;2022-10-22T10:22:04;2.70;;;1.20;;
6109;SDS011;3085;49.444;11.054;2022-10-22T10:24:44;1.97;;;0.90;;
6109;SDS011;3085;49.444;11.054;2022-10-22T10:27:19;3.37;;;1.20;;
6109;SDS011;3085;49.444;11.054;2022-10-22T10:29:53;2.30;;;1.23;;
6109;SDS011;3085;49.444;11.054;2022-10-22T10:32:29;1.43;;;0.87;;
6109;SDS011;3085;49.444;11.054;2022-10-22T10:35:13;3.23;;;1.33;;
6109;SDS011;3085;49.444;11.054;2022-10-22T10:37:46;2.77;;;1.07;;
6109;SDS011;3085;49.444;11.054;2022-10-22T10:40:23;1.20;;;0.70;;
6109;SDS011;3085;49.444;11.054;2022-10-22T10:42:54;5.03;;;1.10;;
6109;SDS011;3085;49.444;11.054;2022-10-22T10:45:27;1.97;;;1.10;;
6109;SDS011;3085;49.444;11.054;2022-10-22T10:48:05;1.73;;;0.80;;
6109;SDS011;3085;49.444;11.054;2022-10-22T10:50:46;4.20;;;1.10;;
6109;SDS011;3085;49.444;11.054;2022-10-22T10:53:20;1.30;;;0.77;;
6109;SDS011;3085;49.444;11.054;2022-10-22T10:56:03;3.27;;;1.10;;
6109;SDS011;3085;49.444;11.054;2022-10-22T10:58:40;2.83;;;0.93;;
6109;SDS011;3085;49.444;11.054;2022-10-22T11:01:14;2.67;;;1.10;;
6109;SDS011;3085;49.444;11.054;2022-10-22T11:03:57;1.60;;;0.90;;
6109;SDS011;3085;49.444;11.054;2022-10-22T11:06:40;3.73;;;0.90;;
6109;SDS011;3085;49.444;11.054;2022-10-22T11:09:11;1.60;;;1.00;;
6109;SDS011;3085;49.444;11.054;2022-10-22T11:11:46;5.13;;;0.90;;
6109;SDS011;3085;49.444;11.054;2022-10-22T11:14:17;6.40;;;1.07;;
6109;SDS011;3085;49.444;11.054;2022-10-22T11:16:48;1.87;;;0.90;;
6109;SDS011;3085;49.444;11.054;2022-10-22T11:19:19;2.30;;;1.20;;
6109;SDS011;3085;49.444;11.054;2022-10-22T11:21:53;1.37;;;0.80;;
6109;SDS011;3085;49.444;11.054;2022-10-22T11:24:26;4.97;;;0.83;;
6109;SDS011;3085;49.444;11.054;2022-10-22T11:26:59;1.53;;;0.90;;
6109;SDS011;3085;49.444;11.054;2022-10-22T11:29:31;1.33;;;0.80;;
6109;SDS011;3085;49.444;11.054;2022-10-22T11:32:03;1.30;;;0.80;;
6109;SDS011;3085;49.444;11.054;2022-10-22T11:34:37;6.10;;;0.93;;
6109;SDS011;3085;49.444;11.054;2022-10-22T11:37:11;2.07;;;1.10;;
6109;SDS011;3085;49.444;11.054;2022-10-22T11:39:40;1.30;;;0.80;;
6109;SDS011;3085;49.444;11.054;2022-10-22T11:42:09;2.07;;;1.00;;
6109;SDS011;3085;49.444;11.054;2022-10-22T11:44:46;6.60;;;1.17;;
6109;SDS011;3085;49.444;11.054;2022-10-22T11:47:24;11.03;;;1.00;;
6109;SDS011;3085;49.444;11.054;2022-10-22T11:49:56;2.70;;;0.90;;
6109;SDS011;3085;49.444;11.054;2022-10-22T11:52:39;3.03;;;1.50;;
6109;SDS011;3085;49.444;11.054;2022-10-22T11:55:33;8.30;;;1.20;;
6109;SDS011;3085;49.444;11.054;2022-10-22T11:58:24;1.77;;;0.80;;
6109;SDS011;3085;49.444;11.054;2022-10-22T12:00:53;2.10;;;1.30;;
6109;SDS011;3085;49.444;11.054;2022-10-22T12:03:23;1.50;;;0.73;;
6109;SDS011;3085;49.444;11.054;2022-10-22T12:06:07;1.87;;;0.90;;
6109;SDS011;3085;49.444;11.054;2022-10-22T12:08:48;1.30;;;0.80;;
6109;SDS011;3085;49.444;11.054;2022-10-22T12:11:19;2.60;;;1.13;;
6109;SDS011;3085;49.444;11.054;2022-10-22T12:16:45;1.73;;;0.90;;
6109;SDS011;3085;49.444;11.054;2022-10-22T12:19:17;3.47;;;1.03;;
6109;SDS011;3085;49.444;11.054;2022-10-22T12:21:52;1.70;;;1.00;;
6109;SDS011;3085;49.444;11.054;2022-10-22T12:24:22;1.67;;;0.90;;
6109;SDS011;3085;49.444;11.054;2022-10-22T12:26:50;1.47;;;0.70;;
6109;SDS011;3085;49.444;11.054;2022-10-22T12:29:18;2.30;;;1.10;;
6109;SDS011;3085;49.444;11.054;2022-10-22T12:31:47;2.20;;;1.00;;
6109;SDS011;3085;49.444;11.054;2022-10-22T12:34:15;3.00;;;0.90;;
6109;SDS011;3085;49.444;11.054;2022-10-22T12:36:47;1.63;;;0.90;;
6109;SDS011;3085;49.444;11.054;2022-10-22T12:39:15;1.30;;;0.77;;
6109;SDS011;3085;49.444;11.054;2022-10-22T12:41:45;4.10;;;1.43;;
6109;SDS011;3085;49.444;11.054;2022-10-22T12:44:13;4.37;;;1.43;;
6109;SDS011;3085;49.444;11.054;2022-10-22T12:46:41;2.20;;;0.90;;
6109;SDS011;3085;49.444;11.054;2022-10-22T12:49:12;2.00;;;1.10;;
6109;SDS011;3085;49.444;11.054;2022-10-22T12:51:42;1.40;;;0.80;;
6109;SDS011;3085;49.444;11.054;2022-10-22T12:54:12;2.13;;;0.90;;
6109;SDS011;3085;49.444;11.054;2022-10-22T12:56:48;2.17;;;0.80;;
6109;SDS011;3085;49.444;11.054;2022-10-22T12:59:17;7.20;;;0.83;;
6109;SDS011;3085;49.444;11.054;2022-10-22T13:01:47;1.87;;;1.17;;
6109;SDS011;3085;49.444;11.054;2022-10-22T13:04:20;3.33;;;1.20;;
6109;SDS011;3085;49.444;11.054;2022-10-22T13:07:03;1.40;;;0.93;;
6109;SDS011;3085;49.444;11.054;2022-10-22T13:09:40;1.93;;;1.00;;
6109;SDS011;3085;49.444;11.054;2022-10-22T13:12:09;1.30;;;1.00;;
6109;SDS011;3085;49.444;11.054;2022-10-22T13:14:40;3.20;;;1.03;;
6109;SDS011;3085;49.444;11.054;2022-10-22T13:17:09;3.40;;;0.90;;
6109;SDS011;3085;49.444;11.054;2022-10-22T13:19:47;2.53;;;1.20;;
6109;SDS011;3085;49.444;11.054;2022-10-22T13:22:25;1.83;;;0.97;;
6109;SDS011;3085;49.444;11.054;2022-10-22T13:24:55;1.80;;;0.97;;
6109;SDS011;3085;49.444;11.054;2022-10-22T13:27:25;4.67;;;0.80;;
6109;SDS011;3085;49.444;11.054;2022-10-22T13:29:53;6.23;;;0.90;;
6109;SDS011;3085;49.444;11.054;2022-10-22T13:32:25;2.53;;;0.80;;
6109;SDS011;3085;49.444;11.054;2022-10-22T13:34:55;2.63;;;0.80;;
6109;SDS011;3085;49.444;11.054;2022-10-22T13:37:23;1.57;;;1.10;;
6109;SDS011;3085;49.444;11.054;2022-10-22T13:39:50;1.73;;;1.00;;
6109;SDS011;3085;49.444;11.054;2022-10-22T13:42:17;3.40;;;0.77;;
6109;SDS011;3085;49.444;11.054;2022-10-22T13:44:46;1.30;;;0.77;;
6109;SDS011;3085;49.444;11.054;2022-10-22T13:47:15;1.90;;;0.77;;
6109;SDS011;3085;49.444;11.054;2022-10-22T13:49:50;2.83;;;1.00;;
6109;SDS011;3085;49.444;11.054;2022-10-22T13:52:22;1.10;;;0.60;;
6109;SDS011;3085;49.444;11.054;2022-10-22T13:55:00;1.37;;;1.10;;
6109;SDS011;3085;49.444;11.054;2022-10-22T13:57:35;1.77;;;1.20;;
6109;SDS011;3085;49.444;11.054;2022-10-22T14:00:03;1.33;;;0.70;;
6109;SDS011;3085;49.444;11.054;2022-10-22T14:02:31;4.50;;;1.00;;
6109;SDS011;3085;49.444;11.054;2022-10-22T14:04:57;3.13;;;1.00;;
6109;SDS011;3085;49.444;11.054;2022-10-22T14:07:27;5.70;;;0.93;;
6109;SDS011;3085;49.444;11.054;2022-10-22T14:09:54;2.13;;;1.10;;
6109;SDS011;3085;49.444;11.054;2022-10-22T14:12:20;2.03;;;1.20;;
6109;SDS011;3085;49.444;11.054;2022-10-22T14:14:49;2.17;;;1.00;;
6109;SDS011;3085;49.444;11.054;2022-10-22T14:17:17;1.33;;;0.80;;
6109;SDS011;3085;49.444;11.054;2022-10-22T14:19:44;1.30;;;0.80;;
6109;SDS011;3085;49.444;11.054;2022-10-22T14:22:14;2.60;;;0.90;;
6109;SDS011;3085;49.444;11.054;2022-10-22T14:24:42;1.70;;;1.10;;
6109;SDS011;3085;49.444;11.054;2022-10-22T14:27:10;2.53;;;1.33;;
6109;SDS011;3085;49.444;11.054;2022-10-22T14:29:38;2.60;;;1.13;;
6109;SDS011;3085;49.444;11.054;2022-10-22T14:32:09;1.30;;;0.80;;
6109;SDS011;3085;49.444;11.054;2022-10-22T14:34:39;1.53;;;0.87;;
6109;SDS011;3085;49.444;11.054;2022-10-22T14:37:11;1.17;;;0.70;;
6109;SDS011;3085;49.444;11.054;2022-10-22T14:39:43;6.60;;;1.30;;
6109;SDS011;3085;49.444;11.054;2022-10-22T14:42:16;3.03;;;1.77;;
6109;SDS011;3085;49.444;11.054;2022-10-22T14:44:43;4.80;;;1.10;;
6109;SDS011;3085;49.444;11.054;2022-10-22T14:47:10;1.97;;;1.10;;
6109;SDS011;3085;49.444;11.054;2022-10-22T14:49:37;4.70;;;1.33;;
6109;SDS011;3085;49.444;11.054;2022-10-22T14:52:05;2.57;;;1.13;;
6109;SDS011;3085;49.444;11.054;2022-10-22T14:54:32;2.40;;;1.03;;
6109;SDS011;3085;49.444;11.054;2022-10-22T14:56:59;2.40;;;0.97;;
6109;SDS011;3085;49.444;11.054;2022-10-22T14:59:27;3.90;;;1.40;;
6109;SDS011;3085;49.444;11.054;2022-10-22T15:01:54;4.80;;;1.10;;
6109;SDS011;3085;49.444;11.054;2022-10-22T15:04:21;2.27;;;0.80;;
6109;SDS011;3085;49.444;11.054;2022-10-22T15:06:49;2.37;;;1.23;;
6109;SDS011;3085;49.444;11.054;2022-10-22T15:09:21;6.47;;;1.57;;
6109;SDS011;3085;49.444;11.054;2022-10-22T15:11:49;1.77;;;1.00;;
6109;SDS011;3085;49.444;11.054;2022-10-22T15:14:16;1.60;;;1.00;;
6109;SDS011;3085;49.444;11.054;2022-10-22T15:16:43;3.53;;;1.20;;
6109;SDS011;3085;49.444;11.054;2022-10-22T15:19:10;4.93;;;1.57;;
6109;SDS011;3085;49.444;11.054;2022-10-22T15:21:36;2.47;;;1.17;;